sensor_id;sensor_type;location;lat;lon;timestamp;P1;durP1;ratioP1;P2;durP2;ratioP2
30299;SDS011;17110;52.602;12.998;2024-01-15T00:04:46;17.05;;;12.50;;
30299;SDS011;17110;52.602;12.998;2024-01-15T00:09:46;17.63;;;11.77;;
30299;SDS011;17110;52.602;12.998;2024-01-15T00:14:47;17.25;;;12.13;;
30299;SDS011;17110;52.602;12.998;2024-01-15T00:19:49;18.23;;;11.60;;
30299;SDS011;17110;52.602;12.998;2024-01-15T00:24:49;15.65;;;11.77;;
30299;SDS011;17110;52.602;12.998;2024-01-15T00:29:50;18.75;;;11.45;;
30299;SDS011;17110;52.602;12.998;2024-01-15T00:34:52;16.92;;;11.10;;
30299;SDS011;17110;52.602;12.998;2024-01-15T00:39:53;18.98;;;11.13;;
30299;SDS011;17110;52.602;12.998;2024-01-15T00:44:53;16.05;;;10.93;;
30299;SDS011;17110;52.602;12.998;2024-01-15T00:49:55;12.95;;;9.02;;
30299;SDS011;17110;52.602;12.998;2024-01-15T00:54:56;15.00;;;9.68;;
30299;SDS011;17110;52.602;12.998;2024-01-15T00:59:56;16.77;;;10.00;;
30299;SDS011;17110;52.602;12.998;2024-01-15T01:04:58;14.70;;;9.82;;
30299;SDS011;17110;52.602;12.998;2024-01-15T01:09:59;14.18;;;9.30;;
30299;SDS011;17110;52.602;12.998;2024-01-15T01:15:00;14.07;;;9.68;;
30299;SDS011;17110;52.602;12.998;2024-01-15T01:20:02;13.57;;;9.07;;
30299;SDS011;17110;52.602;12.998;2024-01-15T01:25:03;11.30;;;7.63;;
30299;SDS011;17110;52.602;12.998;2024-01-15T01:30:05;15.25;;;10.32;;
30299;SDS011;17110;52.602;12.998;2024-01-15T01:35:08;14.38;;;10.00;;
30299;SDS011;17110;52.602;12.998;2024-01-15T01:40:09;14.63;;;10.02;;
30299;SDS011;17110;52.602;12.998;2024-01-15T01:45:10;19.90;;;10.38;;
30299;SDS011;17110;52.602;12.998;2024-01-15T01:50:12;13.63;;;9.57;;
30299;SDS011;17110;52.602;12.998;2024-01-15T01:55:13;14.05;;;9.77;;
30299;SDS011;17110;52.602;12.998;2024-01-15T02:00:14;15.18;;;9.18;;
30299;SDS011;17110;52.602;12.998;2024-01-15T02:05:18;13.05;;;9.32;;
30299;SDS011;17110;52.602;12.998;2024-01-15T02:10:19;12.00;;;8.43;;
30299;SDS011;17110;52.602;12.998;2024-01-15T02:15:19;12.68;;;8.88;;
30299;SDS011;17110;52.602;12.998;2024-01-15T02:20:21;11.02;;;7.03;;
30299;SDS011;17110;52.602;12.998;2024-01-15T02:25:23;10.75;;;7.00;;
30299;SDS011;17110;52.602;12.998;2024-01-15T02:30:24;9.80;;;6.68;;
30299;SDS011;17110;52.602;12.998;2024-01-15T02:35:26;9.48;;;6.63;;
30299;SDS011;17110;52.602;12.998;2024-01-15T02:40:28;10.25;;;6.63;;
30299;SDS011;17110;52.602;12.998;2024-01-15T02:45:29;10.85;;;6.75;;
30299;SDS011;17110;52.602;12.998;2024-01-15T02:50:30;9.52;;;6.00;;
30299;SDS011;17110;52.602;12.998;2024-01-15T02:55:32;9.15;;;6.00;;
30299;SDS011;17110;52.602;12.998;2024-01-15T03:00:33;11.00;;;6.45;;
30299;SDS011;17110;52.602;12.998;2024-01-15T03:05:33;9.75;;;6.13;;
30299;SDS011;17110;52.602;12.998;2024-01-15T03:10:35;12.13;;;6.97;;
30299;SDS011;17110;52.602;12.998;2024-01-15T03:15:36;12.73;;;6.65;;
30299;SDS011;17110;52.602;12.998;2024-01-15T03:20:37;10.55;;;6.05;;
30299;SDS011;17110;52.602;12.998;2024-01-15T03:25:39;9.38;;;6.25;;
30299;SDS011;17110;52.602;12.998;2024-01-15T03:30:39;9.88;;;5.88;;
30299;SDS011;17110;52.602;12.998;2024-01-15T03:35:40;10.95;;;5.57;;
30299;SDS011;17110;52.602;12.998;2024-01-15T03:40:42;8.77;;;5.60;;
30299;SDS011;17110;52.602;12.998;2024-01-15T03:45:43;11.25;;;6.25;;
30299;SDS011;17110;52.602;12.998;2024-01-15T03:50:43;12.95;;;5.97;;
30299;SDS011;17110;52.602;12.998;2024-01-15T03:55:45;11.10;;;6.13;;
30299;SDS011;17110;52.602;12.998;2024-01-15T04:00:46;16.27;;;5.97;;
30299;SDS011;17110;52.602;12.998;2024-01-15T04:05:46;7.63;;;5.47;;
30299;SDS011;17110;52.602;12.998;2024-01-15T04:10:48;10.85;;;5.45;;
30299;SDS011;17110;52.602;12.998;2024-01-15T04:15:49;8.40;;;4.55;;
30299;SDS011;17110;52.602;12.998;2024-01-15T04:20:49;12.18;;;4.72;;
30299;SDS011;17110;52.602;12.998;2024-01-15T04:25:51;8.52;;;4.45;;
30299;SDS011;17110;52.602;12.998;2024-01-15T04:30:52;7.15;;;4.15;;
30299;SDS011;17110;52.602;12.998;2024-01-15T04:35:53;14.23;;;4.68;;
30299;SDS011;17110;52.602;12.998;2024-01-15T04:40:55;7.28;;;3.67;;
30299;SDS011;17110;52.602;12.998;2024-01-15T04:45:55;5.88;;;4.13;;
30299;SDS011;17110;52.602;12.998;2024-01-15T04:50:56;6.55;;;2.95;;
30299;SDS011;17110;52.602;12.998;2024-01-15T04:55:58;6.70;;;3.28;;
30299;SDS011;17110;52.602;12.998;2024-01-15T05:00:58;5.75;;;3.10;;
30299;SDS011;17110;52.602;12.998;2024-01-15T05:05:59;7.85;;;2.75;;
30299;SDS011;17110;52.602;12.998;2024-01-15T05:11:01;6.57;;;2.85;;
30299;SDS011;17110;52.602;12.998;2024-01-15T05:16:02;5.63;;;2.75;;
30299;SDS011;17110;52.602;12.998;2024-01-15T05:21:03;7.72;;;2.85;;
30299;SDS011;17110;52.602;12.998;2024-01-15T05:26:05;7.05;;;2.83;;
30299;SDS011;17110;52.602;12.998;2024-01-15T05:31:06;6.30;;;2.97;;
30299;SDS011;17110;52.602;12.998;2024-01-15T05:36:06;4.88;;;2.55;;
30299;SDS011;17110;52.602;12.998;2024-01-15T05:41:08;5.65;;;2.30;;
30299;SDS011;17110;52.602;12.998;2024-01-15T05:46:09;3.92;;;1.95;;
30299;SDS011;17110;52.602;12.998;2024-01-15T05:51:10;4.88;;;2.05;;
30299;SDS011;17110;52.602;12.998;2024-01-15T05:56:12;6.93;;;2.35;;
30299;SDS011;17110;52.602;12.998;2024-01-15T06:01:12;4.72;;;2.35;;
30299;SDS011;17110;52.602;12.998;2024-01-15T06:06:13;4.80;;;2.17;;
30299;SDS011;17110;52.602;12.998;2024-01-15T06:11:15;5.15;;;2.28;;
30299;SDS011;17110;52.602;12.998;2024-01-15T06:16:15;5.18;;;1.73;;
30299;SDS011;17110;52.602;12.998;2024-01-15T06:21:16;5.85;;;2.42;;
30299;SDS011;17110;52.602;12.998;2024-01-15T06:26:18;10.65;;;2.03;;
30299;SDS011;17110;52.602;12.998;2024-01-15T06:31:19;6.50;;;2.10;;
30299;SDS011;17110;52.602;12.998;2024-01-15T06:36:19;5.57;;;2.38;;
30299;SDS011;17110;52.602;12.998;2024-01-15T06:41:21;7.15;;;2.67;;
30299;SDS011;17110;52.602;12.998;2024-01-15T06:46:22;5.97;;;2.35;;
30299;SDS011;17110;52.602;12.998;2024-01-15T06:51:23;9.65;;;2.42;;
30299;SDS011;17110;52.602;12.998;2024-01-15T06:56:25;5.82;;;1.77;;
30299;SDS011;17110;52.602;12.998;2024-01-15T07:01:26;5.65;;;2.13;;
30299;SDS011;17110;52.602;12.998;2024-01-15T07:06:26;8.93;;;2.80;;
30299;SDS011;17110;52.602;12.998;2024-01-15T07:11:28;9.52;;;2.75;;
30299;SDS011;17110;52.602;12.998;2024-01-15T07:16:29;3.85;;;2.00;;
30299;SDS011;17110;52.602;12.998;2024-01-15T07:21:29;6.95;;;2.42;;
30299;SDS011;17110;52.602;12.998;2024-01-15T07:26:31;4.43;;;1.88;;
30299;SDS011;17110;52.602;12.998;2024-01-15T07:31:32;6.50;;;2.53;;
30299;SDS011;17110;52.602;12.998;2024-01-15T07:36:33;5.43;;;2.33;;
30299;SDS011;17110;52.602;12.998;2024-01-15T07:41:35;6.93;;;1.80;;
30299;SDS011;17110;52.602;12.998;2024-01-15T07:46:36;6.10;;;1.83;;
30299;SDS011;17110;52.602;12.998;2024-01-15T07:51:37;6.97;;;2.15;;
30299;SDS011;17110;52.602;12.998;2024-01-15T08:02:07;7.72;;;1.88;;
30299;SDS011;17110;52.602;12.998;2024-01-15T08:07:08;6.95;;;2.38;;
30299;SDS011;17110;52.602;12.998;2024-01-15T08:12:08;9.23;;;2.60;;
30299;SDS011;17110;52.602;12.998;2024-01-15T08:17:10;3.45;;;1.90;;
30299;SDS011;17110;52.602;12.998;2024-01-15T08:22:11;4.25;;;1.92;;
30299;SDS011;17110;52.602;12.998;2024-01-15T08:27:12;7.50;;;2.50;;
30299;SDS011;17110;52.602;12.998;2024-01-15T08:32:14;5.05;;;2.13;;
30299;SDS011;17110;52.602;12.998;2024-01-15T08:37:14;5.25;;;1.60;;
30299;SDS011;17110;52.602;12.998;2024-01-15T08:42:15;3.50;;;1.40;;
30299;SDS011;17110;52.602;12.998;2024-01-15T08:47:17;5.43;;;1.88;;
30299;SDS011;17110;52.602;12.998;2024-01-15T08:52:17;3.83;;;2.17;;
30299;SDS011;17110;52.602;12.998;2024-01-15T08:57:18;11.10;;;2.58;;
30299;SDS011;17110;52.602;12.998;2024-01-15T09:02:20;6.80;;;2.38;;
30299;SDS011;17110;52.602;12.998;2024-01-15T09:07:21;6.63;;;2.38;;
30299;SDS011;17110;52.602;12.998;2024-01-15T09:12:21;8.60;;;2.50;;
30299;SDS011;17110;52.602;12.998;2024-01-15T09:17:23;6.10;;;1.85;;
30299;SDS011;17110;52.602;12.998;2024-01-15T09:22:24;6.63;;;2.00;;
30299;SDS011;17110;52.602;12.998;2024-01-15T09:27:24;4.35;;;1.73;;
30299;SDS011;17110;52.602;12.998;2024-01-15T09:32:26;4.32;;;1.80;;
30299;SDS011;17110;52.602;12.998;2024-01-15T09:37:27;4.85;;;1.80;;
30299;SDS011;17110;52.602;12.998;2024-01-15T09:42:28;4.03;;;1.90;;
30299;SDS011;17110;52.602;12.998;2024-01-15T09:47:30;4.15;;;2.20;;
30299;SDS011;17110;52.602;12.998;2024-01-15T09:52:31;1.95;;;1.25;;
30299;SDS011;17110;52.602;12.998;2024-01-15T09:57:31;6.43;;;1.85;;
30299;SDS011;17110;52.602;12.998;2024-01-15T10:02:34;4.07;;;1.80;;
30299;SDS011;17110;52.602;12.998;2024-01-15T10:07:36;3.50;;;1.30;;
30299;SDS011;17110;52.602;12.998;2024-01-15T10:12:37;4.07;;;1.60;;
30299;SDS011;17110;52.602;12.998;2024-01-15T10:17:40;1.80;;;1.20;;
30299;SDS011;17110;52.602;12.998;2024-01-15T10:22:41;3.95;;;1.38;;
30299;SDS011;17110;52.602;12.998;2024-01-15T10:27:42;9.23;;;2.15;;
30299;SDS011;17110;52.602;12.998;2024-01-15T10:32:45;2.85;;;1.17;;
30299;SDS011;17110;52.602;12.998;2024-01-15T10:37:58;7.35;;;1.30;;
30299;SDS011;17110;52.602;12.998;2024-01-15T10:42:59;3.08;;;1.20;;
30299;SDS011;17110;52.602;12.998;2024-01-15T10:48:01;7.40;;;1.20;;
30299;SDS011;17110;52.602;12.998;2024-01-15T10:53:02;2.30;;;1.27;;
30299;SDS011;17110;52.602;12.998;2024-01-15T10:58:04;1.85;;;1.20;;
30299;SDS011;17110;52.602;12.998;2024-01-15T11:03:06;3.42;;;1.00;;
30299;SDS011;17110;52.602;12.998;2024-01-15T11:08:07;1.38;;;1.00;;
30299;SDS011;17110;52.602;12.998;2024-01-15T11:13:09;2.40;;;1.05;;
30299;SDS011;17110;52.602;12.998;2024-01-15T11:18:11;2.00;;;1.00;;
30299;SDS011;17110;52.602;12.998;2024-01-15T11:23:14;1.33;;;1.17;;
30299;SDS011;17110;52.602;12.998;2024-01-15T11:28:47;1.80;;;1.30;;
30299;SDS011;17110;52.602;12.998;2024-01-15T11:33:50;1.48;;;1.30;;
30299;SDS011;17110;52.602;12.998;2024-01-15T11:38:50;2.03;;;1.40;;
30299;SDS011;17110;52.602;12.998;2024-01-15T11:43:51;2.80;;;1.40;;
30299;SDS011;17110;52.602;12.998;2024-01-15T11:48:53;1.20;;;1.10;;
30299;SDS011;17110;52.602;12.998;2024-01-15T11:54:03;1.25;;;1.00;;
30299;SDS011;17110;52.602;12.998;2024-01-15T11:59:09;3.08;;;1.30;;
30299;SDS011;17110;52.602;12.998;2024-01-15T12:04:11;1.50;;;1.40;;
30299;SDS011;17110;52.602;12.998;2024-01-15T12:09:11;1.17;;;1.08;;
30299;SDS011;17110;52.602;12.998;2024-01-15T12:14:12;4.82;;;1.20;;
30299;SDS011;17110;52.602;12.998;2024-01-15T12:19:14;2.63;;;1.27;;
30299;SDS011;17110;52.602;12.998;2024-01-15T12:24:16;0.85;;;0.80;;
30299;SDS011;17110;52.602;12.998;2024-01-15T12:29:17;1.60;;;1.10;;
30299;SDS011;17110;52.602;12.998;2024-01-15T12:34:19;2.22;;;0.88;;
30299;SDS011;17110;52.602;12.998;2024-01-15T12:39:20;1.02;;;0.93;;
30299;SDS011;17110;52.602;12.998;2024-01-15T12:44:21;0.95;;;0.82;;
30299;SDS011;17110;52.602;12.998;2024-01-15T12:49:23;1.15;;;1.05;;
30299;SDS011;17110;52.602;12.998;2024-01-15T12:54:24;1.33;;;1.20;;
30299;SDS011;17110;52.602;12.998;2024-01-15T12:59:26;2.17;;;1.65;;
30299;SDS011;17110;52.602;12.998;2024-01-15T13:04:28;1.92;;;1.70;;
30299;SDS011;17110;52.602;12.998;2024-01-15T13:09:28;1.58;;;1.33;;
30299;SDS011;17110;52.602;12.998;2024-01-15T13:14:29;2.35;;;1.30;;
30299;SDS011;17110;52.602;12.998;2024-01-15T13:19:31;1.95;;;1.40;;
30299;SDS011;17110;52.602;12.998;2024-01-15T13:24:32;1.60;;;1.33;;
30299;SDS011;17110;52.602;12.998;2024-01-15T13:29:32;1.58;;;1.25;;
30299;SDS011;17110;52.602;12.998;2024-01-15T13:34:34;3.28;;;1.38;;
30299;SDS011;17110;52.602;12.998;2024-01-15T13:39:35;6.40;;;1.90;;
30299;SDS011;17110;52.602;12.998;2024-01-15T13:44:35;6.90;;;1.60;;
30299;SDS011;17110;52.602;12.998;2024-01-15T13:49:37;2.63;;;1.52;;
30299;SDS011;17110;52.602;12.998;2024-01-15T13:54:38;5.22;;;2.05;;
30299;SDS011;17110;52.602;12.998;2024-01-15T13:59:39;2.90;;;1.48;;
30299;SDS011;17110;52.602;12.998;2024-01-15T14:04:41;3.60;;;1.48;;
30299;SDS011;17110;52.602;12.998;2024-01-15T14:09:41;2.00;;;1.50;;
30299;SDS011;17110;52.602;12.998;2024-01-15T14:14:42;4.90;;;1.52;;
30299;SDS011;17110;52.602;12.998;2024-01-15T14:19:44;6.40;;;1.55;;
30299;SDS011;17110;52.602;12.998;2024-01-15T14:24:44;2.33;;;1.35;;
30299;SDS011;17110;52.602;12.998;2024-01-15T14:29:45;7.43;;;1.92;;
30299;SDS011;17110;52.602;12.998;2024-01-15T14:34:47;8.13;;;1.52;;
30299;SDS011;17110;52.602;12.998;2024-01-15T14:39:48;1.42;;;1.33;;
30299;SDS011;17110;52.602;12.998;2024-01-15T14:44:48;2.72;;;1.65;;
30299;SDS011;17110;52.602;12.998;2024-01-15T14:49:50;2.60;;;1.50;;
30299;SDS011;17110;52.602;12.998;2024-01-15T14:54:51;4.88;;;2.13;;
30299;SDS011;17110;52.602;12.998;2024-01-15T14:59:51;2.92;;;1.70;;
30299;SDS011;17110;52.602;12.998;2024-01-15T15:04:53;4.05;;;1.83;;
30299;SDS011;17110;52.602;12.998;2024-01-15T15:09:54;3.88;;;1.95;;
30299;SDS011;17110;52.602;12.998;2024-01-15T15:14:55;5.55;;;2.22;;
30299;SDS011;17110;52.602;12.998;2024-01-15T15:19:57;3.55;;;2.20;;
30299;SDS011;17110;52.602;12.998;2024-01-15T15:24:57;2.55;;;2.00;;
30299;SDS011;17110;52.602;12.998;2024-01-15T15:29:58;2.13;;;1.70;;
30299;SDS011;17110;52.602;12.998;2024-01-15T15:35:00;3.58;;;2.28;;
30299;SDS011;17110;52.602;12.998;2024-01-15T15:40:01;2.28;;;2.00;;
30299;SDS011;17110;52.602;12.998;2024-01-15T15:45:01;3.72;;;2.10;;
30299;SDS011;17110;52.602;12.998;2024-01-15T15:50:04;2.80;;;1.70;;
30299;SDS011;17110;52.602;12.998;2024-01-15T15:55:06;3.63;;;2.13;;
30299;SDS011;17110;52.602;12.998;2024-01-15T16:00:07;2.97;;;1.98;;
30299;SDS011;17110;52.602;12.998;2024-01-15T16:05:13;4.63;;;2.47;;
30299;SDS011;17110;52.602;12.998;2024-01-15T16:10:14;3.45;;;1.85;;
30299;SDS011;17110;52.602;12.998;2024-01-15T16:15:19;5.20;;;1.92;;
30299;SDS011;17110;52.602;12.998;2024-01-15T16:20:22;4.28;;;2.70;;
30299;SDS011;17110;52.602;12.998;2024-01-15T16:25:23;4.97;;;2.33;;
30299;SDS011;17110;52.602;12.998;2024-01-15T16:30:23;3.88;;;2.50;;
30299;SDS011;17110;52.602;12.998;2024-01-15T16:35:25;3.25;;;2.25;;
30299;SDS011;17110;52.602;12.998;2024-01-15T16:40:26;5.38;;;2.80;;
30299;SDS011;17110;52.602;12.998;2024-01-15T16:45:27;4.57;;;2.65;;
30299;SDS011;17110;52.602;12.998;2024-01-15T16:50:29;4.32;;;2.53;;
30299;SDS011;17110;52.602;12.998;2024-01-15T16:55:29;3.97;;;2.83;;
30299;SDS011;17110;52.602;12.998;2024-01-15T17:00:30;2.83;;;2.33;;
30299;SDS011;17110;52.602;12.998;2024-01-15T17:05:32;3.72;;;2.95;;
30299;SDS011;17110;52.602;12.998;2024-01-15T17:10:32;5.53;;;3.13;;
30299;SDS011;17110;52.602;12.998;2024-01-15T17:15:33;3.35;;;2.30;;
30299;SDS011;17110;52.602;12.998;2024-01-15T17:20:35;3.30;;;2.90;;
30299;SDS011;17110;52.602;12.998;2024-01-15T17:25:36;4.68;;;2.95;;
30299;SDS011;17110;52.602;12.998;2024-01-15T17:30:36;6.40;;;3.40;;
30299;SDS011;17110;52.602;12.998;2024-01-15T17:35:38;5.65;;;2.78;;
30299;SDS011;17110;52.602;12.998;2024-01-15T17:40:39;3.15;;;2.55;;
30299;SDS011;17110;52.602;12.998;2024-01-15T17:45:39;3.50;;;2.72;;
30299;SDS011;17110;52.602;12.998;2024-01-15T17:50:41;15.27;;;8.52;;
30299;SDS011;17110;52.602;12.998;2024-01-15T17:55:42;3.65;;;2.85;;
30299;SDS011;17110;52.602;12.998;2024-01-15T18:00:43;4.85;;;3.22;;
30299;SDS011;17110;52.602;12.998;2024-01-15T18:05:45;4.05;;;2.80;;
30299;SDS011;17110;52.602;12.998;2024-01-15T18:10:45;3.85;;;2.97;;
30299;SDS011;17110;52.602;12.998;2024-01-15T18:15:46;3.72;;;2.80;;
30299;SDS011;17110;52.602;12.998;2024-01-15T18:20:48;4.07;;;2.67;;
30299;SDS011;17110;52.602;12.998;2024-01-15T18:25:49;5.25;;;3.20;;
30299;SDS011;17110;52.602;12.998;2024-01-15T18:30:50;3.45;;;2.80;;
30299;SDS011;17110;52.602;12.998;2024-01-15T18:35:52;5.53;;;2.45;;
30299;SDS011;17110;52.602;12.998;2024-01-15T18:40:53;2.45;;;2.08;;
30299;SDS011;17110;52.602;12.998;2024-01-15T18:45:55;4.90;;;2.15;;
30299;SDS011;17110;52.602;12.998;2024-01-15T18:50:57;3.30;;;1.80;;
30299;SDS011;17110;52.602;12.998;2024-01-15T18:55:58;4.38;;;1.60;;
30299;SDS011;17110;52.602;12.998;2024-01-15T19:01:00;3.22;;;1.40;;
30299;SDS011;17110;52.602;12.998;2024-01-15T19:06:02;8.88;;;2.42;;
30299;SDS011;17110;52.602;12.998;2024-01-15T19:11:03;4.68;;;2.20;;
30299;SDS011;17110;52.602;12.998;2024-01-15T19:16:04;1.83;;;1.60;;
30299;SDS011;17110;52.602;12.998;2024-01-15T19:21:06;2.38;;;1.63;;
30299;SDS011;17110;52.602;12.998;2024-01-15T19:26:07;1.80;;;1.10;;
30299;SDS011;17110;52.602;12.998;2024-01-15T19:31:07;3.33;;;1.50;;
30299;SDS011;17110;52.602;12.998;2024-01-15T19:36:09;2.00;;;1.10;;
30299;SDS011;17110;52.602;12.998;2024-01-15T19:41:19;2.53;;;1.42;;
30299;SDS011;17110;52.602;12.998;2024-01-15T19:46:20;1.33;;;1.23;;
30299;SDS011;17110;52.602;12.998;2024-01-15T19:51:22;2.45;;;1.27;;
30299;SDS011;17110;52.602;12.998;2024-01-15T19:56:22;2.20;;;0.98;;
30299;SDS011;17110;52.602;12.998;2024-01-15T20:01:23;5.20;;;2.10;;
30299;SDS011;17110;52.602;12.998;2024-01-15T20:06:25;2.85;;;1.40;;
30299;SDS011;17110;52.602;12.998;2024-01-15T20:11:26;2.92;;;1.60;;
30299;SDS011;17110;52.602;12.998;2024-01-15T20:16:26;4.85;;;1.98;;
30299;SDS011;17110;52.602;12.998;2024-01-15T20:21:28;1.80;;;1.48;;
30299;SDS011;17110;52.602;12.998;2024-01-15T20:26:29;3.30;;;1.70;;
30299;SDS011;17110;52.602;12.998;2024-01-15T20:31:30;2.58;;;1.50;;
30299;SDS011;17110;52.602;12.998;2024-01-15T20:36:32;3.60;;;1.45;;
30299;SDS011;17110;52.602;12.998;2024-01-15T20:41:32;2.80;;;2.10;;
30299;SDS011;17110;52.602;12.998;2024-01-15T20:46:33;6.88;;;1.90;;
30299;SDS011;17110;52.602;12.998;2024-01-15T20:51:35;3.88;;;1.60;;
30299;SDS011;17110;52.602;12.998;2024-01-15T20:56:35;5.45;;;3.30;;
30299;SDS011;17110;52.602;12.998;2024-01-15T21:01:36;5.38;;;2.35;;
30299;SDS011;17110;52.602;12.998;2024-01-15T21:06:38;3.45;;;1.75;;
30299;SDS011;17110;52.602;12.998;2024-01-15T21:11:39;2.58;;;1.17;;
30299;SDS011;17110;52.602;12.998;2024-01-15T21:16:39;5.00;;;1.40;;
30299;SDS011;17110;52.602;12.998;2024-01-15T21:21:41;1.88;;;1.48;;
30299;SDS011;17110;52.602;12.998;2024-01-15T21:26:43;3.13;;;1.70;;
30299;SDS011;17110;52.602;12.998;2024-01-15T21:31:43;2.88;;;1.73;;
30299;SDS011;17110;52.602;12.998;2024-01-15T21:36:45;3.28;;;1.50;;
30299;SDS011;17110;52.602;12.998;2024-01-15T21:41:46;3.78;;;1.40;;
30299;SDS011;17110;52.602;12.998;2024-01-15T21:46:47;6.28;;;1.45;;
30299;SDS011;17110;52.602;12.998;2024-01-15T21:51:49;3.42;;;1.15;;
30299;SDS011;17110;52.602;12.998;2024-01-15T21:56:50;4.35;;;1.30;;
30299;SDS011;17110;52.602;12.998;2024-01-15T22:01:50;2.83;;;1.73;;
30299;SDS011;17110;52.602;12.998;2024-01-15T22:06:52;3.97;;;1.20;;
30299;SDS011;17110;52.602;12.998;2024-01-15T22:11:53;2.53;;;1.30;;
30299;SDS011;17110;52.602;12.998;2024-01-15T22:16:53;1.88;;;1.45;;
30299;SDS011;17110;52.602;12.998;2024-01-15T22:21:55;3.40;;;1.65;;
30299;SDS011;17110;52.602;12.998;2024-01-15T22:26:56;2.90;;;1.55;;
30299;SDS011;17110;52.602;12.998;2024-01-15T22:31:57;2.38;;;1.60;;
30299;SDS011;17110;52.602;12.998;2024-01-15T22:36:59;5.30;;;2.03;;
30299;SDS011;17110;52.602;12.998;2024-01-15T22:41:59;5.05;;;2.92;;
30299;SDS011;17110;52.602;12.998;2024-01-15T22:47:00;6.22;;;2.47;;
30299;SDS011;17110;52.602;12.998;2024-01-15T22:52:02;3.13;;;2.33;;
30299;SDS011;17110;52.602;12.998;2024-01-15T22:57:03;3.03;;;2.35;;
30299;SDS011;17110;52.602;12.998;2024-01-15T23:02:04;3.38;;;2.38;;
30299;SDS011;17110;52.602;12.998;2024-01-15T23:07:07;3.65;;;2.50;;
30299;SDS011;17110;52.602;12.998;2024-01-15T23:12:08;6.47;;;2.78;;
30299;SDS011;17110;52.602;12.998;2024-01-15T23:17:08;2.72;;;2.08;;
30299;SDS011;17110;52.602;12.998;2024-01-15T23:22:10;3.08;;;2.17;;
30299;SDS011;17110;52.602;12.998;2024-01-15T23:27:11;5.78;;;2.80;;
30299;SDS011;17110;52.602;12.998;2024-01-15T23:32:11;3.88;;;2.30;;
30299;SDS011;17110;52.602;12.998;2024-01-15T23:37:13;3.67;;;1.80;;
30299;SDS011;17110;52.602;12.998;2024-01-15T23:42:14;2.83;;;2.05;;
30299;SDS011;17110;52.602;12.998;2024-01-15T23:47:15;2.15;;;1.95;;
30299;SDS011;17110;52.602;12.998;2024-01-15T23:52:17;3.53;;;2.00;;
30299;SDS011;17110;52.602;12.998;2024-01-15T23:57:17;3.88;;;1.80;;
